Time;durP1;ratioP1;P1;durP2;ratioP2;P2;SDS_P1;SDS_P2;PMS_P1;PMS_P2;Temp;Humidity;BMP_temperature;BMP_pressure;BME280_temperature;BME280_humidity;BME280_pressure;Samples;Min_cycle;Max_cycle;Signal;HPM_P1;HPM_P2
2022/08/21 00:05:44;;;;;;;2.33;1.15;;;;;;;19.52;96.56;101343.09;20963609;28;20048;-75
2022/08/21 00:15:47;;;;;;;1.77;1.13;;;;;;;19.61;96.60;101356.75;20958450;28;20556;-75
2022/08/21 00:25:49;;;;;;;2.03;1.10;;;;;;;19.48;96.61;101330.84;20963754;28;20056;-75
2022/08/21 00:35:50;;;;;;;1.95;1.10;;;;;;;19.60;96.62;101344.25;20958812;28;20106;-75
2022/08/21 00:45:53;;;;;;;1.63;1.25;;;;;;;19.59;96.64;101354.19;20957189;28;20826;-75
2022/08/21 00:55:57;;;;;;;2.20;1.10;;;;;;;19.32;96.52;101311.59;20937778;28;20044;-75
2022/08/21 01:05:59;;;;;;;1.23;0.90;;;;;;;19.57;96.63;101361.56;20961022;28;20449;-75
2022/08/21 01:16:04;;;;;;;2.15;1.15;;;;;;;19.56;96.27;101351.75;20951458;28;20508;-75
2022/08/21 01:26:06;;;;;;;1.70;1.20;;;;;;;19.14;96.47;101290.63;20957731;28;20616;-74
2022/08/21 01:36:08;;;;;;;2.05;1.20;;;;;;;19.55;96.33;101361.72;20953583;28;20048;-75
2022/08/21 01:46:10;;;;;;;1.38;1.23;;;;;;;19.55;96.44;101344.63;20957249;28;20109;-75
2022/08/21 01:56:13;;;;;;;1.20;1.10;;;;;;;19.54;96.36;101342.94;20968780;28;20505;-74
2022/08/21 02:06:17;;;;;;;1.70;1.10;;;;;;;19.41;96.12;101324.25;20953777;28;20063;-74
2022/08/21 02:16:19;;;;;;;1.85;1.10;;;;;;;19.51;96.32;101333.28;20953911;28;20560;-74
2022/08/21 02:26:21;;;;;;;1.30;1.08;;;;;;;19.51;96.10;101318.91;20949280;28;20044;-75
2022/08/21 02:36:23;;;;;;;2.05;1.33;;;;;;;19.21;95.84;101270.22;20965771;28;20049;-76
2022/08/21 02:46:24;;;;;;;1.20;1.10;;;;;;;19.50;96.00;101315.38;20968998;28;20044;-75
2022/08/21 02:56:26;;;;;;;1.83;1.20;;;;;;;19.50;95.71;101306.41;20959783;28;20497;-75
2022/08/21 03:06:32;;;;;;;1.63;1.30;;;;;;;19.43;95.81;101292.56;20946696;28;20068;-75
2022/08/21 03:16:34;;;;;;;2.22;1.20;;;;;;;19.48;95.92;101306.53;20963577;28;20076;-75
2022/08/21 03:26:36;;;;;;;1.50;1.05;;;;;;;19.48;95.76;101284.94;20957048;28;20056;-75
2022/08/21 03:36:41;;;;;;;1.17;1.08;;;;;;;19.47;95.67;101283.25;20957783;28;20044;-75
2022/08/21 03:46:42;;;;;;;1.30;1.10;;;;;;;19.46;95.61;101268.03;20964880;28;20051;-76
2022/08/21 03:56:44;;;;;;;1.23;1.10;;;;;;;19.45;95.43;101273.56;21019702;28;20053;-75
2022/08/21 04:06:45;;;;;;;1.23;1.13;;;;;;;19.45;95.36;101282.53;20967009;28;20180;-75
2022/08/21 04:16:47;;;;;;;1.30;0.98;;;;;;;19.45;95.17;101274.41;20961326;28;20058;-75
2022/08/21 04:26:49;;;;;;;2.53;1.30;;;;;;;19.47;95.59;101287.78;20882610;28;20458;-74
2022/08/21 04:36:50;;;;;;;2.53;1.67;;;;;;;19.37;94.59;101266.13;20878197;28;20044;-74
2022/08/21 04:46:52;;;;;;;3.78;2.00;;;;;;;19.45;93.47;101278.94;20880434;28;20064;-74
2022/08/21 04:57:00;;;;;;;3.33;2.25;;;;;;;19.44;92.76;101288.88;20864654;28;20080;-74
2022/08/21 05:07:04;;;;;;;5.70;3.17;;;;;;;19.44;93.83;101288.03;20885575;28;20127;-74
2022/08/21 05:17:05;;;;;;;6.50;3.40;;;;;;;19.41;93.03;101289.16;20905843;28;20183;-74
2022/08/21 05:27:07;;;;;;;4.35;2.55;;;;;;;19.39;92.50;101302.81;20922592;28;20049;-74
2022/08/21 05:37:11;;;;;;;6.70;3.45;;;;;;;19.17;91.41;101276.88;20899489;28;20055;-74
2022/08/21 05:47:12;;;;;;;5.10;3.22;;;;;;;19.33;90.45;101297.09;20879549;28;20102;-73
2022/08/21 05:57:14;;;;;;;6.55;3.08;;;;;;;19.31;90.69;101288.28;20892110;28;20174;-74
2022/08/21 06:07:15;;;;;;;5.88;3.20;;;;;;;19.27;89.86;101293.94;20906088;28;20745;-74
2022/08/21 06:17:18;;;;;;;6.53;3.85;;;;;;;19.21;89.27;101291.81;20936587;28;20047;-75
2022/08/21 06:27:19;;;;;;;6.05;3.88;;;;;;;19.17;90.08;101293.06;20927618;28;20068;-75
2022/08/21 06:37:27;;;;;;;8.52;4.57;;;;;;;19.11;90.78;101304.41;20923890;28;20044;-73
2022/08/21 06:47:28;;;;;;;6.57;3.67;;;;;;;19.09;91.90;101311.78;20934220;28;20459;-73
2022/08/21 06:57:30;;;;;;;6.32;3.40;;;;;;;19.08;92.82;101310.91;20920911;28;20052;-74
2022/08/21 07:07:31;;;;;;;8.68;4.35;;;;;;;18.78;93.72;101252.38;20962532;28;20052;-75
2022/08/21 07:17:33;;;;;;;5.95;2.50;;;;;;;19.08;95.08;101299.28;20953378;28;20064;-76
2022/08/21 07:27:34;;;;;;;3.75;1.80;;;;;;;19.07;95.00;101278.69;20960913;28;20163;-73
2022/08/21 07:37:37;;;;;;;4.50;1.88;;;;;;;19.03;95.01;101258.34;20892661;28;20048;-73
2022/08/21 07:47:39;;;;;;;4.97;1.85;;;;;;;19.10;95.22;101254.13;20992774;28;20057;-73
2022/08/21 07:57:44;;;;;;;2.45;1.50;;;;;;;19.33;95.20;101272.78;20880731;28;20855;-73
2022/08/21 08:07:45;;;;;;;4.20;1.60;;;;;;;19.36;94.89;101280.63;20893869;28;20053;-73
2022/08/21 08:17:48;;;;;;;2.33;1.40;;;;;;;19.39;95.16;101286.63;20883573;28;20049;-73
2022/08/21 08:27:49;;;;;;;4.32;1.25;;;;;;;19.33;95.08;101267.41;20886233;28;20056;-73
2022/08/21 08:37:51;;;;;;;3.80;1.20;;;;;;;19.51;95.11;101273.00;20920361;28;20179;-74
2022/08/21 08:48:00;;;;;;;3.17;1.30;;;;;;;19.59;94.77;101281.25;20928838;28;20562;-74
2022/08/21 08:58:24;;;;;;;2.95;1.20;;;;;;;19.60;94.20;101264.06;20863052;28;20402;-75
2022/08/21 09:08:44;;;;;;;2.13;1.10;;;;;;;19.69;94.51;101271.34;20863809;28;20132;-76
2022/08/21 09:19:07;;;;;;;2.15;1.10;;;;;;;19.70;94.35;101278.47;20838139;28;20042;-76
2022/08/21 09:29:10;;;;;;;3.75;1.27;;;;;;;19.67;94.32;101272.47;20756305;28;20085;-75
2022/08/21 09:39:21;;;;;;;5.95;1.10;;;;;;;19.69;94.52;101276.75;20768707;28;20509;-75
2022/08/21 09:49:34;;;;;;;1.30;1.00;;;;;;;19.76;94.38;101281.59;20833158;28;20053;-75
2022/08/21 09:59:37;;;;;;;2.13;1.20;;;;;;;19.80;94.00;101278.47;20785282;28;20077;-73
2022/08/21 10:09:39;;;;;;;3.63;1.30;;;;;;;19.82;93.58;101272.94;20696389;28;20106;-73
2022/08/21 10:19:58;;;;;;;4.93;1.15;;;;;;;19.85;93.51;101262.69;20716010;28;20038;-73
2022/08/21 10:30:03;;;;;;;4.50;1.20;;;;;;;19.88;93.21;101266.09;20783942;28;20049;-72
2022/08/21 10:40:20;;;;;;;;;;;;;;;19.91;93.03;101263.16;20790552;28;20046;-72
2022/08/21 10:50:30;;;;;;;3.80;1.13;;;;;;;19.91;92.77;101252.34;20789723;28;19921;-72
2022/08/21 11:00:38;;;;;;;2.63;1.10;;;;;;;19.92;92.74;101262.16;20710635;28;20065;-73
2022/08/21 11:10:46;;;;;;;4.20;1.23;;;;;;;19.94;92.61;101260.19;20702860;28;20056;-73
2022/08/21 11:21:37;;;;;;;5.68;1.23;;;;;;;19.97;92.51;101249.09;20721676;28;20070;-73
2022/08/21 11:31:48;;;;;;;3.50;1.30;;;;;;;19.99;92.54;101245.22;20708473;28;20133;-73
2022/08/21 11:42:02;;;;;;;2.58;1.35;;;;;;;20.02;92.67;101254.03;20716098;28;20050;-73
2022/08/21 11:52:20;;;;;;;2.15;0.90;;;;;;;20.04;92.40;101247.53;20712420;28;20056;-73
2022/08/21 12:02:33;;;;;;;3.17;0.90;;;;;;;20.06;92.28;101237.41;20688526;28;20054;-72
2022/08/21 12:12:37;;;;;;;3.17;1.40;;;;;;;20.06;92.11;101242.81;20675924;28;20049;-73
2022/08/21 12:22:40;;;;;;;3.13;1.50;;;;;;;20.05;92.33;101235.72;20681692;28;20052;-73
2022/08/21 12:32:45;;;;;;;2.95;1.23;;;;;;;20.03;92.41;101253.06;20723976;28;20060;-73
2022/08/21 12:42:51;;;;;;;2.97;1.10;;;;;;;19.99;92.57;101247.09;20670925;28;20050;-73
2022/08/21 12:53:17;;;;;;;2.67;1.27;;;;;;;19.84;92.72;101222.31;20664523;28;20045;-73
2022/08/21 13:03:22;;;;;;;2.75;1.30;;;;;;;19.95;92.64;101233.00;20771495;28;20049;-73
2022/08/21 13:13:26;;;;;;;1.83;1.05;;;;;;;19.77;92.55;101207.66;20747420;28;20418;-73
2022/08/21 13:23:30;;;;;;;1.98;1.20;;;;;;;19.95;92.74;101242.97;20764938;28;20060;-73
2022/08/21 13:33:31;;;;;;;2.10;1.05;;;;;;;19.96;92.61;101239.28;20802688;28;20057;-73
2022/08/21 13:43:46;;;;;;;2.60;1.25;;;;;;;19.97;92.94;101236.41;20779023;28;20045;-73
2022/08/21 13:53:54;;;;;;;2.40;1.23;;;;;;;19.90;92.99;101242.50;20723852;28;20044;-73
2022/08/21 14:04:14;;;;;;;3.63;1.35;;;;;;;19.97;92.91;101265.31;20771184;28;20052;-73
2022/08/21 14:14:22;;;;;;;3.17;1.27;;;;;;;19.96;93.38;101255.50;20775690;28;20049;-74
2022/08/21 14:24:28;;;;;;;5.05;1.52;;;;;;;19.99;95.11;101256.03;20787620;28;20053;-74
2022/08/21 14:34:30;;;;;;;6.85;1.60;;;;;;;20.04;96.23;101258.31;20734823;28;20138;-74
2022/08/21 14:44:36;;;;;;;5.75;1.83;;;;;;;20.06;97.03;101267.16;20677179;28;20080;-73
2022/08/21 14:54:38;;;;;;;4.45;1.58;;;;;;;20.09;97.54;101261.47;20649425;28;20106;-74
2022/08/21 15:04:39;;;;;;;6.90;1.60;;;;;;;19.94;98.28;101241.28;20660377;28;20053;-74
2022/08/21 15:14:41;;;;;;;7.50;1.58;;;;;;;20.12;99.57;101268.44;20646815;28;20414;-74
2022/08/21 15:24:43;;;;;;;9.30;2.42;;;;;;;20.13;100.00;101267.44;20646993;28;20472;-74
2022/08/21 15:34:44;;;;;;;9.02;4.30;;;;;;;20.14;100.00;101259.19;20669307;28;20050;-73
2022/08/21 15:44:47;;;;;;;7.72;3.30;;;;;;;20.04;100.00;101243.94;20671380;28;20069;-73
2022/08/21 15:54:49;;;;;;;5.88;2.88;;;;;;;20.17;100.00;101268.00;20643885;28;20547;-75
2022/08/21 16:04:51;;;;;;;5.47;2.40;;;;;;;20.15;100.00;101270.84;20672079;28;20054;-74
2022/08/21 16:14:53;;;;;;;6.95;2.60;;;;;;;20.11;100.00;101281.09;20650499;28;20137;-76
2022/08/21 16:24:55;;;;;;;8.10;2.55;;;;;;;20.10;100.00;101279.38;20642241;28;20046;-75
2022/08/21 16:34:57;;;;;;;5.13;2.35;;;;;;;20.02;100.00;101270.25;20743809;28;20045;-74
2022/08/21 16:44:58;;;;;;;6.70;2.60;;;;;;;20.08;100.00;101284.06;20728044;28;20057;-74
2022/08/21 16:55:00;;;;;;;4.47;2.08;;;;;;;20.04;100.00;101295.28;20753223;28;20127;-74
2022/08/21 17:05:03;;;;;;;5.43;2.10;;;;;;;19.68;100.00;101236.38;20747900;28;20120;-74
2022/08/21 17:15:08;;;;;;;3.25;1.80;;;;;;;20.02;100.00;101300.00;20710437;28;20053;-74
2022/08/21 17:25:10;;;;;;;6.93;1.90;;;;;;;20.04;100.00;101306.09;20685667;28;20439;-74
2022/08/21 17:35:13;;;;;;;7.35;1.98;;;;;;;20.04;100.00;101309.69;20709530;28;20056;-73
2022/08/21 17:45:17;;;;;;;7.97;1.95;;;;;;;20.06;100.00;101323.91;20689674;28;20046;-74
2022/08/21 17:55:19;;;;;;;5.97;1.92;;;;;;;20.07;100.00;101313.94;20699358;28;20372;-74
2022/08/21 18:05:21;;;;;;;4.40;1.73;;;;;;;20.01;100.00;101323.47;20658871;28;20534;-78
2022/08/21 18:15:28;;;;;;;5.20;1.77;;;;;;;19.66;100.00;101293.22;20693222;28;20058;-77
2022/08/21 18:25:33;;;;;;;4.93;1.70;;;;;;;20.05;100.00;101340.25;20723696;28;20049;-77
2022/08/21 18:35:35;;;;;;;3.00;1.20;;;;;;;20.04;100.00;101343.94;20721327;28;20073;-73
2022/08/21 18:45:38;;;;;;;5.78;1.48;;;;;;;20.04;100.00;101355.63;20684930;28;20561;-72
2022/08/21 18:55:41;;;;;;;4.15;1.70;;;;;;;20.02;100.00;101359.44;20699489;28;20510;-72
2022/08/21 19:05:44;;;;;;;3.97;1.70;;;;;;;19.97;100.00;101346.38;20689333;28;20084;-72
2022/08/21 19:15:51;;;;;;;3.72;1.58;;;;;;;19.95;100.00;101364.56;20706267;28;20498;-73
2022/08/21 19:25:57;;;;;;;6.28;1.77;;;;;;;19.92;100.00;101364.84;20795977;28;20445;-73
2022/08/21 19:36:01;;;;;;;3.60;1.75;;;;;;;19.89;100.00;101374.03;20811638;28;20061;-72
2022/08/21 19:46:03;;;;;;;1.42;1.10;;;;;;;19.86;100.00;101372.47;20761977;28;20042;-72
2022/08/21 19:56:04;;;;;;;3.42;1.45;;;;;;;19.81;100.00;101376.59;20776166;28;20049;-72
2022/08/21 20:06:06;;;;;;;3.92;1.30;;;;;;;19.83;100.00;101386.25;20792864;28;20041;-72
2022/08/21 20:16:12;;;;;;;3.25;1.75;;;;;;;19.59;100.00;101367.69;20776154;28;20053;-72
2022/08/21 20:26:13;;;;;;;2.40;1.40;;;;;;;19.79;100.00;101406.44;20769166;28;20194;-72
2022/08/21 20:36:16;;;;;;;3.40;1.38;;;;;;;19.57;100.00;101369.66;20792665;28;20056;-72
2022/08/21 20:46:21;;;;;;;1.92;1.13;;;;;;;19.77;100.00;101399.47;20763612;28;20110;-72
2022/08/21 20:56:52;;;;;;;3.55;1.60;;;;;;;19.76;100.00;101404.00;20792360;28;20057;-72
2022/08/21 21:06:54;;;;;;;2.72;1.20;;;;;;;19.75;100.00;101410.41;20823399;28;20049;-72
2022/08/21 21:17:02;;;;;;;3.17;1.67;;;;;;;19.70;100.00;101407.25;20708011;28;20115;-72
2022/08/21 21:27:14;;;;;;;;;;;;;;;19.71;100.00;101409.81;20686436;28;20062;-72
2022/08/21 21:37:23;;;;;;;2.75;1.33;;;;;;;19.47;100.00;101369.66;20687599;28;19928;-72
2022/08/21 21:48:03;;;;;;;2.40;1.27;;;;;;;19.70;100.00;101415.34;20709320;28;20058;-72
2022/08/21 21:58:36;;;;;;;3.67;1.42;;;;;;;19.69;100.00;101416.34;20751929;28;20284;-72
2022/08/21 22:08:49;;;;;;;2.15;1.30;;;;;;;19.67;100.00;101419.19;20708147;28;20045;-72
2022/08/21 22:19:02;;;;;;;2.08;1.08;;;;;;;19.53;100.00;101395.22;20809820;28;20053;-72
2022/08/21 22:29:13;;;;;;;2.88;1.30;;;;;;;19.66;100.00;101419.31;20787399;28;20172;-72
2022/08/21 22:39:31;;;;;;;1.85;1.13;;;;;;;19.65;100.00;101420.31;20780378;28;20049;-72
2022/08/21 22:49:43;;;;;;;2.33;1.48;;;;;;;19.65;100.00;101414.91;20796898;28;20521;-72
2022/08/21 23:00:15;;;;;;;2.38;1.27;;;;;;;19.62;100.00;101409.78;20832182;28;20077;-72
2022/08/21 23:10:25;;;;;;;1.93;1.13;;;;;;;19.61;100.00;101417.00;20784247;28;20405;-72
2022/08/21 23:20:39;;;;;;;3.97;1.40;;;;;;;19.60;100.00;101417.16;20802454;28;20064;-72
2022/08/21 23:30:55;;;;;;;2.22;1.20;;;;;;;19.60;100.00;101411.75;20747997;28;20056;-72
2022/08/21 23:41:11;;;;;;;2.20;1.20;;;;;;;19.59;100.00;101407.34;20687725;28;20045;-72
2022/08/21 23:51:40;;;;;;;2.55;1.42;;;;;;;19.59;100.00;101399.25;20698832;28;20050;-72
